Time;durP1;ratioP1;P1;durP2;ratioP2;P2;SDS_P1;SDS_P2;PMS_P1;PMS_P2;Temp;Humidity;BMP_temperature;BMP_pressure;BME280_temperature;BME280_humidity;BME280_pressure;Samples;Min_cycle;Max_cycle;Signal;HPM_P1;HPM_P2
2022/10/08 03:02:35;;;;;;;14.90;7.93;;;;;;;8.96;67.31;100944.72;5705182;23;20046;-70
2022/10/08 03:05:07;;;;;;;16.70;7.50;;;;;;;9.14;67.02;100933.28;4965358;28;20051;-71
2022/10/08 03:07:34;;;;;;;;;;;;;;;9.17;66.95;100936.50;4973332;28;20053;-70
2022/10/08 03:10:05;;;;;;;14.95;8.05;;;;;;;9.13;67.04;100931.56;4990700;28;19926;-70
2022/10/08 03:12:33;;;;;;;25.58;8.80;;;;;;;9.13;67.30;100943.13;4974626;28;20494;-70
2022/10/08 03:15:00;;;;;;;20.67;8.55;;;;;;;8.97;68.06;100943.72;4972153;28;20053;-70
2022/10/08 03:17:43;;;;;;;18.27;8.55;;;;;;;9.03;68.10;100948.50;4969880;28;20054;-72
2022/10/08 03:20:11;;;;;;;16.85;7.78;;;;;;;9.17;67.59;100949.03;4979920;28;20050;-70
2022/10/08 03:22:37;;;;;;;15.27;8.02;;;;;;;9.06;68.00;100948.22;4991551;28;20046;-70
2022/10/08 03:25:04;;;;;;;15.93;8.18;;;;;;;9.18;67.82;100948.88;4990528;28;20493;-71
2022/10/08 03:27:31;;;;;;;14.77;8.52;;;;;;;9.16;67.72;100948.19;4988905;28;20057;-70
2022/10/08 03:29:57;;;;;;;19.27;8.07;;;;;;;9.17;67.63;100943.69;4989737;28;20054;-70
2022/10/08 03:32:25;;;;;;;14.15;8.05;;;;;;;9.18;67.70;100946.22;4991848;28;20057;-71
2022/10/08 03:34:52;;;;;;;20.42;8.45;;;;;;;9.17;67.80;100946.38;4988470;28;20053;-70
2022/10/08 03:37:19;;;;;;;17.30;8.60;;;;;;;9.11;67.90;100941.59;4982005;28;20050;-70
2022/10/08 03:39:46;;;;;;;17.75;8.25;;;;;;;9.16;67.74;100950.88;4970919;28;20055;-70
2022/10/08 03:42:12;;;;;;;15.70;7.68;;;;;;;9.23;67.58;100943.09;4973157;28;20450;-72
2022/10/08 03:44:39;;;;;;;14.20;8.63;;;;;;;9.42;67.29;100952.94;4969267;28;20070;-71
2022/10/08 03:47:05;;;;;;;20.17;8.07;;;;;;;9.36;67.58;100943.63;4971920;28;20560;-71
2022/10/08 03:49:33;;;;;;;12.35;7.80;;;;;;;9.39;67.56;100942.50;4970207;28;20038;-71
2022/10/08 03:52:00;;;;;;;14.85;8.05;;;;;;;9.17;68.29;100941.00;4967333;28;20043;-70
2022/10/08 03:54:26;;;;;;;18.08;7.93;;;;;;;9.06;68.71;100942.03;4971443;28;20117;-70
2022/10/08 03:56:52;;;;;;;16.48;7.97;;;;;;;9.18;68.49;100934.66;4970097;28;20077;-70
2022/10/08 03:59:19;;;;;;;17.23;8.70;;;;;;;9.24;68.12;100934.13;4972398;28;20049;-70
2022/10/08 04:01:45;;;;;;;21.10;8.30;;;;;;;9.31;68.11;100929.84;4971337;28;20050;-70
2022/10/08 04:04:12;;;;;;;16.25;8.10;;;;;;;9.41;67.45;100928.00;4949361;28;20047;-70
2022/10/08 04:06:38;;;;;;;17.27;7.93;;;;;;;9.34;67.70;100931.41;4946449;29;20411;-70
2022/10/08 04:09:05;;;;;;;19.17;7.88;;;;;;;9.51;67.37;100926.09;4951049;29;20055;-71
2022/10/08 04:11:31;;;;;;;22.58;9.07;;;;;;;9.43;67.41;100930.50;4962491;28;20458;-70
2022/10/08 04:13:59;;;;;;;17.67;8.23;;;;;;;9.34;67.83;100924.22;4971636;28;20047;-70
2022/10/08 04:16:25;;;;;;;17.20;8.00;;;;;;;9.29;67.68;100927.31;4955288;28;20051;-70
2022/10/08 04:18:52;;;;;;;16.38;8.05;;;;;;;9.34;67.95;100924.22;4959294;28;20058;-70
2022/10/08 04:21:19;;;;;;;25.67;8.48;;;;;;;9.21;68.27;100937.88;4971680;28;20414;-70
2022/10/08 04:23:48;;;;;;;24.05;8.50;;;;;;;9.12;68.38;100929.88;4972563;28;20513;-70
2022/10/08 04:26:15;;;;;;;13.65;8.02;;;;;;;9.05;68.57;100935.81;4971232;28;20047;-71
2022/10/08 04:28:43;;;;;;;13.25;7.90;;;;;;;9.25;68.03;100930.44;4971599;28;20049;-71
2022/10/08 04:31:18;;;;;;;20.38;7.93;;;;;;;9.33;67.73;100933.22;4971039;28;20394;-71
2022/10/08 04:33:45;;;;;;;15.57;7.72;;;;;;;9.28;67.68;100933.66;4970263;28;20057;-71
2022/10/08 04:36:21;;;;;;;19.83;7.47;;;;;;;9.31;67.56;100933.38;4971929;28;20483;-71
2022/10/08 04:38:48;;;;;;;24.15;7.70;;;;;;;9.34;67.63;100928.72;4969855;28;20043;-71
2022/10/08 04:41:27;;;;;;;13.55;7.70;;;;;;;9.49;67.05;100928.06;4972247;28;20417;-71
2022/10/08 04:43:57;;;;;;;20.38;8.02;;;;;;;9.55;66.71;100930.16;4970877;28;20055;-71
2022/10/08 04:46:23;;;;;;;16.05;6.88;;;;;;;9.57;66.29;100930.00;4971028;28;20066;-71
2022/10/08 04:48:52;;;;;;;23.52;8.20;;;;;;;9.60;66.18;100939.59;4984722;28;20106;-70
2022/10/08 04:51:22;;;;;;;23.27;8.13;;;;;;;9.55;66.37;100946.25;4960092;28;20047;-66
2022/10/08 04:53:49;;;;;;;17.25;7.68;;;;;;;9.52;66.36;100938.50;4956005;29;20051;-66
2022/10/08 04:56:22;;;;;;;10.73;7.50;;;;;;;9.43;66.29;100941.22;4957352;29;20027;-69
2022/10/08 04:58:49;;;;;;;18.50;7.53;;;;;;;9.29;66.92;100945.22;4956426;29;20055;-66
2022/10/08 05:01:18;;;;;;;20.15;8.25;;;;;;;9.33;66.98;100938.56;4956455;29;20036;-70
2022/10/08 05:03:47;;;;;;;14.65;7.75;;;;;;;9.28;67.04;100940.84;4969712;29;20058;-70
2022/10/08 05:06:15;;;;;;;24.60;8.50;;;;;;;9.23;67.18;100941.28;4975548;29;20055;-70
2022/10/08 05:08:43;;;;;;;16.98;7.15;;;;;;;9.26;66.58;100942.81;4954972;29;20373;-69
2022/10/08 05:11:10;;;;;;;19.55;8.10;;;;;;;9.11;67.61;100939.75;4977271;28;20445;-70
2022/10/08 05:13:37;;;;;;;18.17;8.10;;;;;;;9.08;67.41;100942.72;4995926;28;20090;-70
2022/10/08 05:16:09;;;;;;;23.52;8.38;;;;;;;9.20;67.09;100944.25;4998352;28;20070;-68
2022/10/08 05:18:36;;;;;;;19.70;7.88;;;;;;;9.20;67.29;100938.03;4997766;28;20039;-69
2022/10/08 05:21:05;;;;;;;18.83;8.40;;;;;;;9.03;67.43;100940.47;4985906;28;20114;-69
2022/10/08 05:23:32;;;;;;;15.23;8.00;;;;;;;9.09;67.81;100937.22;4982881;28;20035;-69
2022/10/08 05:26:01;;;;;;;20.88;8.23;;;;;;;8.87;68.11;100942.06;4980099;28;20059;-68
2022/10/08 05:28:28;;;;;;;22.33;8.77;;;;;;;8.95;68.27;100937.66;4977402;29;20107;-69
2022/10/08 05:30:59;;;;;;;14.25;7.97;;;;;;;9.16;67.57;100936.63;4975248;29;20054;-70
2022/10/08 05:33:26;;;;;;;14.30;8.13;;;;;;;9.09;67.70;100945.25;4976191;29;20111;-70
2022/10/08 05:35:52;;;;;;;15.15;7.32;;;;;;;9.26;66.94;100942.81;4976704;29;20066;-69
2022/10/08 05:38:19;;;;;;;18.40;8.57;;;;;;;9.38;66.62;100946.19;4976289;29;20031;-68
2022/10/08 05:40:46;;;;;;;20.90;7.65;;;;;;;9.27;66.68;100944.53;4977536;29;20039;-71
2022/10/08 05:43:12;;;;;;;19.73;7.43;;;;;;;9.29;67.04;100945.22;4976403;29;20046;-70
2022/10/08 05:45:39;;;;;;;18.35;7.43;;;;;;;9.24;67.06;100942.97;4976163;29;20047;-70
2022/10/08 05:48:05;;;;;;;18.15;7.07;;;;;;;9.30;66.92;100945.09;4976113;29;20061;-68
2022/10/08 05:50:35;;;;;;;16.88;6.80;;;;;;;9.28;67.11;100935.50;4975207;29;20039;-68
2022/10/08 05:53:01;;;;;;;19.73;8.02;;;;;;;9.32;66.81;100950.28;4976066;29;20054;-69
2022/10/08 05:55:33;;;;;;;14.18;7.25;;;;;;;9.27;67.05;100945.38;4966172;29;20048;-64
2022/10/08 05:58:00;;;;;;;14.25;7.05;;;;;;;9.23;67.35;100951.13;4936966;29;20074;-64
2022/10/08 06:00:27;;;;;;;13.32;7.80;;;;;;;9.39;66.70;100953.22;4953954;29;20049;-64
2022/10/08 06:02:53;;;;;;;17.92;7.10;;;;;;;9.29;66.93;100959.44;4953371;29;20073;-65
2022/10/08 06:05:20;;;;;;;18.13;7.82;;;;;;;9.35;66.62;100954.50;4945425;28;20049;-65
2022/10/08 06:07:47;;;;;;;13.90;7.18;;;;;;;9.39;66.87;100953.22;4955303;29;20047;-64
2022/10/08 06:10:13;;;;;;;16.00;7.00;;;;;;;9.44;66.56;100956.28;4954555;29;20063;-64
2022/10/08 06:12:40;;;;;;;17.90;8.85;;;;;;;9.24;67.04;100947.50;4953907;29;20039;-65
2022/10/08 06:15:06;;;;;;;17.70;7.40;;;;;;;9.35;66.96;100950.00;4944642;29;20050;-65
2022/10/08 06:17:33;;;;;;;14.77;7.85;;;;;;;9.30;66.84;100954.91;4933837;29;20054;-64
2022/10/08 06:20:00;;;;;;;16.48;6.22;;;;;;;9.48;66.25;100963.91;4938709;28;20133;-64
2022/10/08 06:22:26;;;;;;;19.65;8.48;;;;;;;9.49;66.53;100957.53;4938734;28;20055;-64
2022/10/08 06:24:52;;;;;;;20.67;8.15;;;;;;;9.44;66.49;100964.31;4950216;28;20426;-66
2022/10/08 06:27:19;;;;;;;15.95;8.48;;;;;;;9.32;66.55;100964.50;4953656;29;20047;-68
2022/10/08 06:29:45;;;;;;;28.92;8.35;;;;;;;9.33;66.90;100973.38;4953899;29;20098;-66
2022/10/08 06:32:12;;;;;;;16.73;7.68;;;;;;;9.25;67.32;100975.94;4954233;29;20046;-66
2022/10/08 06:34:40;;;;;;;19.25;8.30;;;;;;;9.32;66.83;100977.06;4953129;29;20047;-66
2022/10/08 06:37:07;;;;;;;19.92;7.50;;;;;;;9.37;66.49;100982.84;4952505;29;20047;-65
2022/10/08 06:39:33;;;;;;;17.05;8.38;;;;;;;9.24;67.38;100983.13;4953332;29;20054;-66
2022/10/08 06:42:00;;;;;;;19.17;7.43;;;;;;;9.33;66.98;100986.75;4953594;29;20051;-66
2022/10/08 06:44:26;;;;;;;16.40;7.60;;;;;;;9.26;67.20;100989.16;4952299;29;20051;-65
2022/10/08 06:46:53;;;;;;;16.05;7.63;;;;;;;9.37;66.91;100998.91;4952798;29;20051;-66
2022/10/08 06:49:21;;;;;;;14.90;8.60;;;;;;;9.34;66.97;100988.47;4954234;29;20407;-65
2022/10/08 06:51:47;;;;;;;20.23;8.75;;;;;;;9.44;66.62;100993.78;4953116;29;20055;-66
2022/10/08 06:54:14;;;;;;;19.33;8.13;;;;;;;9.45;66.53;100990.97;4953136;28;20051;-65
2022/10/08 06:56:40;;;;;;;17.45;9.40;;;;;;;9.40;67.04;100997.75;4953878;29;20101;-65
2022/10/08 06:59:07;;;;;;;15.77;8.43;;;;;;;9.69;66.48;100989.59;4943907;29;20051;-66
2022/10/08 07:01:34;;;;;;;14.43;8.77;;;;;;;10.08;64.96;100984.88;4952860;28;20058;-66
2022/10/08 07:04:03;;;;;;;22.20;9.73;;;;;;;10.59;63.47;100990.63;4968052;28;20426;-63
2022/10/08 07:06:30;;;;;;;21.30;7.70;;;;;;;10.77;62.57;100988.75;4973080;28;20050;-63
2022/10/08 07:08:59;;;;;;;13.80;7.45;;;;;;;10.50;63.31;100993.22;4973524;28;20057;-63
2022/10/08 07:11:26;;;;;;;13.63;8.70;;;;;;;10.79;62.77;100991.28;4973543;28;20301;-62
2022/10/08 07:13:54;;;;;;;14.63;7.32;;;;;;;11.31;60.58;100986.81;4973963;28;20065;-62
2022/10/08 07:16:23;;;;;;;15.85;7.18;;;;;;;10.99;61.27;100990.94;4974299;28;20050;-62
2022/10/08 07:18:51;;;;;;;18.88;7.22;;;;;;;10.61;62.35;100996.66;4969005;28;20043;-62
2022/10/08 07:21:19;;;;;;;15.75;7.25;;;;;;;10.37;63.08;101014.16;4954163;28;20043;-62
2022/10/08 07:23:46;;;;;;;14.32;6.80;;;;;;;10.67;63.21;101018.38;4953815;28;20047;-62
2022/10/08 07:26:15;;;;;;;17.40;7.57;;;;;;;11.72;60.13;101013.09;4953828;28;20050;-62
2022/10/08 07:29:03;;;;;;;17.63;7.40;;;;;;;12.44;57.84;101006.25;4942873;28;20058;-63
2022/10/08 07:31:32;;;;;;;13.48;6.75;;;;;;;13.12;55.62;101007.84;4951888;28;20114;-62
2022/10/08 07:34:00;;;;;;;15.60;6.47;;;;;;;13.77;53.86;101009.59;4953350;29;20052;-63
2022/10/08 07:36:28;;;;;;;13.57;6.93;;;;;;;14.37;52.31;101013.50;4953109;28;20054;-63
2022/10/08 07:38:56;;;;;;;16.33;6.53;;;;;;;14.83;50.82;101016.25;4953949;28;20058;-61
2022/10/08 07:41:23;;;;;;;14.88;6.13;;;;;;;15.39;48.78;101019.44;4949426;29;20047;-61
2022/10/08 07:43:52;;;;;;;12.02;5.10;;;;;;;15.14;48.73;101014.28;4953280;29;20043;-61
2022/10/08 07:46:19;;;;;;;15.02;5.15;;;;;;;15.81;47.39;101020.69;4953401;29;20392;-61
2022/10/08 07:48:45;;;;;;;16.27;5.32;;;;;;;16.44;45.98;101021.91;4953252;29;20535;-61
2022/10/08 07:51:18;;;;;;;11.35;5.10;;;;;;;16.31;45.63;101019.03;4943478;29;20055;-61
2022/10/08 07:53:45;;;;;;;13.55;4.35;;;;;;;16.43;45.61;101023.75;4953593;29;20050;-61
2022/10/08 07:56:14;;;;;;;11.27;5.07;;;;;;;16.74;44.79;101024.53;4952817;29;20055;-61
2022/10/08 07:58:41;;;;;;;14.88;5.07;;;;;;;17.37;43.38;101028.22;4952317;29;20487;-62
2022/10/08 08:01:12;;;;;;;14.38;4.50;;;;;;;17.69;42.63;101028.66;4952765;29;20058;-61
2022/10/08 08:03:39;;;;;;;16.77;4.32;;;;;;;17.80;42.38;101028.91;4928884;29;20050;-62
2022/10/08 08:06:09;;;;;;;14.20;4.38;;;;;;;17.78;41.77;101036.41;4932426;29;20062;-61
2022/10/08 08:08:38;;;;;;;16.48;4.50;;;;;;;18.17;41.03;101039.53;4933620;29;20052;-61
2022/10/08 08:11:06;;;;;;;14.48;4.40;;;;;;;18.40;41.05;101042.75;4945833;28;20051;-62
2022/10/08 08:13:35;;;;;;;13.50;4.32;;;;;;;18.16;40.79;101035.16;4972225;28;20053;-61
2022/10/08 08:16:06;;;;;;;18.48;4.30;;;;;;;18.55;39.96;101035.28;4972191;28;20042;-61
2022/10/08 08:18:35;;;;;;;12.50;4.20;;;;;;;19.05;39.18;101039.56;4971286;28;20039;-61
2022/10/08 08:21:08;;;;;;;14.27;3.53;;;;;;;19.18;38.91;101034.13;4954868;28;20055;-61
2022/10/08 08:23:38;;;;;;;13.30;3.80;;;;;;;18.75;38.96;101031.75;4971522;28;20054;-61
2022/10/08 08:26:08;;;;;;;11.93;3.33;;;;;;;18.46;39.72;101035.69;4971599;28;20047;-63
2022/10/08 08:28:35;;;;;;;14.50;3.42;;;;;;;19.31;38.10;101039.56;4971105;28;20046;-61
2022/10/08 08:31:16;;;;;;;13.50;3.75;;;;;;;18.95;38.32;101037.25;4934846;28;20137;-61
2022/10/08 08:33:49;;;;;;;10.05;3.03;;;;;;;19.29;37.56;101044.38;4959279;28;20525;-61
2022/10/08 08:36:17;;;;;;;15.73;3.60;;;;;;;18.89;38.44;101044.31;4957753;28;20089;-63
2022/10/08 08:38:45;;;;;;;21.02;3.90;;;;;;;19.44;37.52;101036.81;4968689;28;20042;-62
2022/10/08 08:41:20;;;;;;;16.20;3.13;;;;;;;19.44;36.85;101044.16;4972020;28;20050;-61
2022/10/08 08:43:47;;;;;;;12.95;3.05;;;;;;;19.01;37.89;101042.72;4968879;28;20054;-61
2022/10/08 08:46:19;;;;;;;16.02;3.53;;;;;;;18.81;38.40;101036.38;4954923;28;20051;-61
2022/10/08 08:48:46;;;;;;;21.70;4.25;;;;;;;19.17;37.84;101036.03;4966961;28;20110;-62
2022/10/08 08:51:15;;;;;;;11.65;3.05;;;;;;;19.26;37.58;101044.78;4977909;28;20058;-61
2022/10/08 08:53:41;;;;;;;15.48;2.92;;;;;;;18.95;38.58;101046.25;4977652;28;20038;-62
2022/10/08 08:56:14;;;;;;;16.13;4.28;;;;;;;18.35;39.65;101037.13;4977170;28;20050;-61
2022/10/08 08:58:48;;;;;;;16.40;3.30;;;;;;;18.18;39.65;101036.63;4974955;28;20050;-61
2022/10/08 09:01:18;;;;;;;19.75;3.75;;;;;;;18.08;39.91;101047.00;4978202;28;20077;-61
2022/10/08 09:03:49;;;;;;;22.27;3.63;;;;;;;18.61;39.29;101038.22;4991013;28;20046;-61
2022/10/08 09:06:21;;;;;;;15.35;3.65;;;;;;;18.98;38.75;101034.13;4997241;28;20155;-61
2022/10/08 09:09:03;;;;;;;18.05;3.08;;;;;;;18.35;39.10;101047.97;4995938;28;20048;-62
2022/10/08 09:11:29;;;;;;;15.85;3.22;;;;;;;17.98;40.29;101054.69;4996861;28;20042;-62
2022/10/08 09:14:25;;;;;;;14.70;3.63;;;;;;;18.73;39.11;101055.63;4971362;28;20526;-62
2022/10/08 09:16:54;;;;;;;21.88;3.58;;;;;;;19.67;37.55;101055.47;4983330;28;20478;-61
2022/10/08 09:19:21;;;;;;;16.05;3.60;;;;;;;19.04;38.09;101062.38;4984154;28;20406;-61
2022/10/08 09:21:48;;;;;;;21.45;3.42;;;;;;;18.69;38.82;101059.78;4996477;28;20133;-61
2022/10/08 09:24:15;;;;;;;19.80;3.78;;;;;;;18.42;39.47;101062.41;4996792;28;20512;-61
2022/10/08 09:26:42;;;;;;;17.05;3.92;;;;;;;18.23;39.77;101065.88;4997278;28;20039;-61
2022/10/08 09:29:30;;;;;;;20.55;4.05;;;;;;;17.46;41.30;101064.16;4995615;28;20053;-61
2022/10/08 09:31:56;;;;;;;16.55;3.47;;;;;;;16.73;43.15;101064.31;4983780;28;20121;-62
2022/10/08 09:34:23;;;;;;;17.65;4.15;;;;;;;16.43;43.87;101071.66;4973995;28;20121;-61
2022/10/08 09:37:02;;;;;;;21.02;4.18;;;;;;;16.78;43.40;101063.75;4995147;28;20050;-62
2022/10/08 09:39:31;;;;;;;18.65;3.90;;;;;;;17.32;42.48;101069.44;4969647;28;20054;-62
2022/10/08 09:42:18;;;;;;;16.85;3.63;;;;;;;16.76;43.88;101065.81;4996737;28;20061;-62
2022/10/08 09:44:57;;;;;;;16.30;3.35;;;;;;;16.99;43.12;101069.19;4994733;28;20050;-61
2022/10/08 09:47:25;;;;;;;16.02;3.17;;;;;;;16.97;43.35;101054.97;4996050;28;20046;-62
2022/10/08 09:50:14;;;;;;;18.60;3.42;;;;;;;17.01;43.53;101068.97;4983208;28;20055;-61
2022/10/08 09:52:41;;;;;;;15.02;3.38;;;;;;;16.88;44.08;101073.22;4975738;28;20050;-61
2022/10/08 09:55:30;;;;;;;16.13;3.33;;;;;;;16.65;44.10;101069.88;4994253;28;20061;-61
2022/10/08 09:58:02;;;;;;;14.75;3.60;;;;;;;16.14;45.48;101078.81;4980067;28;20471;-61
2022/10/08 10:00:34;;;;;;;22.58;3.20;;;;;;;16.05;45.95;101081.78;4982205;28;20050;-63
2022/10/08 10:03:03;;;;;;;15.32;3.55;;;;;;;15.91;46.32;101073.50;4981999;28;20049;-63
2022/10/08 10:05:34;;;;;;;13.52;3.40;;;;;;;16.09;45.86;101083.09;4976364;28;20057;-63
2022/10/08 10:08:01;;;;;;;15.38;3.72;;;;;;;16.18;45.95;101071.97;4992800;28;20050;-63
2022/10/08 10:10:33;;;;;;;16.30;3.65;;;;;;;16.45;45.19;101077.75;4994186;28;20050;-61
2022/10/08 10:13:18;;;;;;;;;;;;;;;16.64;44.20;101082.59;4991080;28;20054;-64
2022/10/08 10:16:13;;;;;;;13.25;3.47;;;;;;;16.30;45.42;101082.34;4990843;28;19921;-63
2022/10/08 10:18:54;;;;;;;18.98;3.85;;;;;;;16.33;44.88;101085.53;4983843;28;20048;-63
2022/10/08 10:21:39;;;;;;;21.50;4.40;;;;;;;15.73;46.43;101081.16;4991939;28;20536;-64
2022/10/08 10:24:14;;;;;;;16.85;3.90;;;;;;;15.37;47.29;101091.78;4972845;28;20053;-62
2022/10/08 10:26:43;;;;;;;16.63;3.38;;;;;;;15.78;46.27;101097.69;4989630;28;20421;-62
2022/10/08 10:29:16;;;;;;;26.63;3.70;;;;;;;15.33;47.70;101091.31;4990764;28;20042;-62
2022/10/08 10:31:49;;;;;;;17.75;3.65;;;;;;;15.58;47.22;101102.75;4992658;28;20050;-63
2022/10/08 10:34:29;;;;;;;19.77;4.30;;;;;;;15.99;45.98;101105.06;4947359;28;20050;-63
2022/10/08 10:37:00;;;;;;;16.52;3.50;;;;;;;16.43;45.50;101096.03;4992185;28;20077;-64
2022/10/08 10:39:32;;;;;;;17.40;3.83;;;;;;;15.67;47.11;101101.69;4991848;28;20520;-64
2022/10/08 10:42:20;;;;;;;22.67;4.35;;;;;;;15.42;47.42;101097.47;4991493;28;20416;-62
2022/10/08 10:44:55;;;;;;;14.52;3.47;;;;;;;15.14;48.23;101095.34;4991732;28;20046;-64
2022/10/08 10:47:23;;;;;;;18.27;4.40;;;;;;;14.97;49.08;101099.19;4991254;28;20042;-64
2022/10/08 10:49:59;;;;;;;16.70;4.40;;;;;;;15.07;48.59;101104.38;4991561;28;20126;-64
2022/10/08 10:52:38;;;;;;;18.02;3.88;;;;;;;14.96;48.97;101100.22;4971315;28;20039;-65
2022/10/08 10:55:26;;;;;;;18.30;3.47;;;;;;;14.69;49.55;101099.69;4953070;29;20062;-66
2022/10/08 10:57:59;;;;;;;14.85;4.07;;;;;;;14.59;49.65;101100.94;4953480;28;20287;-64
2022/10/08 11:00:46;;;;;;;10.82;3.33;;;;;;;14.38;50.20;101096.16;4953618;29;20065;-64
2022/10/08 11:03:37;;;;;;;21.77;4.05;;;;;;;14.53;50.18;101099.78;4951285;29;20426;-64
2022/10/08 11:06:25;;;;;;;17.75;3.10;;;;;;;14.74;49.47;101105.44;4951633;29;20130;-66
2022/10/08 11:09:18;;;;;;;14.70;3.10;;;;;;;14.98;49.01;101099.03;4952648;29;20051;-65
2022/10/08 11:11:51;;;;;;;16.98;3.95;;;;;;;14.73;49.73;101100.19;4934743;28;20130;-65
2022/10/08 11:14:41;;;;;;;16.02;3.63;;;;;;;14.72;49.80;101103.94;4952652;29;20414;-64
2022/10/08 11:17:30;;;;;;;17.90;3.50;;;;;;;14.81;49.95;101097.47;4936248;29;20049;-65
2022/10/08 11:20:09;;;;;;;16.02;4.05;;;;;;;14.73;50.21;101101.03;4942698;28;20055;-64
2022/10/08 11:22:59;;;;;;;15.77;3.75;;;;;;;14.42;50.85;101105.56;4942970;29;20057;-64
2022/10/08 11:25:57;;;;;;;17.33;3.53;;;;;;;14.56;50.42;101099.41;4952643;28;20051;-64
2022/10/08 11:28:59;;;;;;;19.85;3.97;;;;;;;14.19;51.49;101105.53;4949282;29;20047;-64
2022/10/08 11:31:44;;;;;;;13.82;3.97;;;;;;;14.00;52.51;101106.75;4951380;29;20106;-65
2022/10/08 11:34:28;;;;;;;14.05;3.88;;;;;;;14.00;53.32;101107.59;4955776;28;20050;-64
2022/10/08 11:37:12;;;;;;;16.67;4.95;;;;;;;13.73;55.05;101121.44;4954293;28;20061;-65
2022/10/08 11:40:01;;;;;;;22.30;5.40;;;;;;;13.90;56.41;101125.00;4972286;28;20043;-64
2022/10/08 11:42:40;;;;;;;18.95;5.45;;;;;;;13.56;58.29;101131.41;4971558;28;20562;-64
2022/10/08 11:45:22;;;;;;;25.10;5.47;;;;;;;13.39;59.46;101124.34;4972610;28;20105;-65
2022/10/08 11:47:53;;;;;;;19.35;6.03;;;;;;;13.48;59.85;101126.03;4966735;28;20055;-64
2022/10/08 11:50:27;;;;;;;18.30;5.28;;;;;;;13.09;60.99;101124.00;4962373;29;20071;-68
2022/10/08 11:53:08;;;;;;;15.00;5.82;;;;;;;13.52;60.11;101119.28;4975782;29;20096;-66
2022/10/08 11:55:36;;;;;;;16.42;6.10;;;;;;;13.29;61.26;101116.44;4976087;29;20047;-69
2022/10/08 11:58:06;;;;;;;22.70;6.20;;;;;;;13.49;60.53;101119.63;4973264;29;21440;-69
2022/10/08 12:00:45;;;;;;;22.90;7.15;;;;;;;13.45;60.59;101120.97;4973146;28;21032;-62
2022/10/08 12:03:32;;;;;;;17.98;6.32;;;;;;;13.75;60.30;101114.03;4953780;29;20054;-61
2022/10/08 12:06:24;;;;;;;17.52;7.07;;;;;;;13.94;59.30;101120.94;4935086;29;20138;-61
2022/10/08 12:08:53;;;;;;;20.05;5.68;;;;;;;14.23;58.33;101113.09;4911605;29;20130;-61
2022/10/08 12:11:28;;;;;;;13.40;5.68;;;;;;;14.48;57.74;101121.91;4956318;28;20050;-62
2022/10/08 12:14:10;;;;;;;21.75;5.78;;;;;;;14.49;57.49;101111.94;4989406;28;20057;-61
2022/10/08 12:16:46;;;;;;;;;;;;;;;14.63;57.01;101115.75;4990591;28;20065;-61
2022/10/08 12:19:31;;;;;;;18.80;6.35;;;;;;;14.65;56.77;101111.88;4990311;28;20366;-63
2022/10/08 12:22:01;;;;;;;13.55;5.30;;;;;;;14.92;55.88;101112.41;4963861;28;20094;-62
2022/10/08 12:24:36;;;;;;;17.45;5.70;;;;;;;15.42;54.45;101113.69;4990778;28;20108;-62
2022/10/08 12:27:15;;;;;;;16.85;4.88;;;;;;;15.62;53.86;101106.75;4989288;28;20055;-61
2022/10/08 12:29:55;;;;;;;16.63;4.93;;;;;;;16.40;51.26;101104.53;4992071;28;20042;-63
2022/10/08 12:32:28;;;;;;;15.30;4.47;;;;;;;16.56;50.48;101112.47;4988774;28;20054;-63
2022/10/08 12:34:55;;;;;;;14.38;4.55;;;;;;;16.59;49.34;101114.81;4990244;28;20051;-62
2022/10/08 12:37:30;;;;;;;12.75;3.95;;;;;;;15.97;50.44;101115.22;4990609;28;20046;-63
2022/10/08 12:40:08;;;;;;;13.95;4.60;;;;;;;15.64;51.42;101112.00;4969772;28;20414;-62
2022/10/08 12:42:37;;;;;;;18.75;4.22;;;;;;;15.60;52.05;101116.06;4985906;28;20486;-63
2022/10/08 12:45:16;;;;;;;18.10;4.53;;;;;;;16.15;50.26;101112.97;4979558;28;20047;-61
2022/10/08 12:48:18;;;;;;;17.98;4.28;;;;;;;16.05;49.88;101117.81;4976292;28;20049;-61
2022/10/08 12:51:02;;;;;;;11.68;4.22;;;;;;;16.32;49.56;101115.47;4982150;28;20043;-62
2022/10/08 12:53:29;;;;;;;12.38;3.58;;;;;;;16.25;49.45;101122.66;4992322;28;20054;-62
2022/10/08 12:55:57;;;;;;;13.13;3.72;;;;;;;15.83;50.14;101118.75;4989726;28;20054;-61
2022/10/08 12:58:28;;;;;;;15.13;3.95;;;;;;;16.02;49.80;101122.75;4990479;28;20113;-63
2022/10/08 13:00:58;;;;;;;9.55;3.40;;;;;;;15.21;51.08;101112.53;4984946;28;20050;-61
2022/10/08 13:03:25;;;;;;;11.70;3.40;;;;;;;15.14;51.14;101122.38;4973561;28;20094;-61
2022/10/08 13:05:54;;;;;;;18.90;4.20;;;;;;;15.00;51.41;101123.16;4978221;28;20293;-62
2022/10/08 13:08:28;;;;;;;13.38;2.88;;;;;;;14.73;51.76;101122.66;4989498;28;20073;-61
2022/10/08 13:10:56;;;;;;;12.65;3.25;;;;;;;14.84;51.67;101126.78;4988651;28;20050;-61
2022/10/08 13:13:43;;;;;;;11.77;3.53;;;;;;;15.00;51.18;101134.81;4990592;28;20133;-61
2022/10/08 13:16:14;;;;;;;12.80;4.55;;;;;;;14.98;51.52;101144.09;4991991;28;20111;-62
2022/10/08 13:18:44;;;;;;;12.83;3.50;;;;;;;14.86;51.91;101134.75;4991084;28;20046;-62
2022/10/08 13:21:22;;;;;;;12.30;3.30;;;;;;;14.54;52.68;101136.56;4990050;28;20047;-61
2022/10/08 13:23:50;;;;;;;9.95;3.13;;;;;;;14.60;52.13;101133.19;4989685;28;20121;-63
2022/10/08 13:26:36;;;;;;;12.90;3.28;;;;;;;14.64;52.20;101134.50;4989820;28;20057;-61
2022/10/08 13:29:21;;;;;;;10.55;2.60;;;;;;;14.46;50.69;101133.91;4989235;28;20498;-62
2022/10/08 13:31:55;;;;;;;18.05;7.07;;;;;;;14.32;50.92;101142.72;4987549;28;20050;-62
2022/10/08 13:34:23;;;;;;;10.05;2.90;;;;;;;14.22;49.89;101130.31;4990981;28;20066;-62
2022/10/08 13:36:56;;;;;;;13.10;3.72;;;;;;;14.45;49.29;101140.31;4990100;28;20043;-62
2022/10/08 13:39:48;;;;;;;9.20;2.67;;;;;;;14.29;49.58;101138.53;4992468;28;20046;-62
2022/10/08 13:42:17;;;;;;;17.42;2.35;;;;;;;14.38;49.06;101142.03;4992948;28;20054;-62
2022/10/08 13:44:44;;;;;;;12.07;2.53;;;;;;;14.38;48.92;101139.34;4991364;28;20050;-62
2022/10/08 13:47:16;;;;;;;7.38;2.22;;;;;;;14.48;48.59;101135.41;4995162;28;20050;-62
2022/10/08 13:49:43;;;;;;;6.50;2.42;;;;;;;14.73;48.21;101141.53;4993026;28;20050;-63
2022/10/08 13:52:20;;;;;;;12.25;3.10;;;;;;;14.65;47.80;101141.56;4993929;28;20052;-62
2022/10/08 13:54:48;;;;;;;13.02;2.70;;;;;;;14.56;47.42;101139.91;4993216;28;20042;-63
2022/10/08 13:57:15;;;;;;;9.23;2.35;;;;;;;14.55;47.42;101135.53;4992968;28;20046;-63
2022/10/08 13:59:41;;;;;;;14.48;3.55;;;;;;;14.66;46.99;101124.34;4994595;28;20046;-62
2022/10/08 14:02:12;;;;;;;12.10;2.45;;;;;;;14.25;47.88;101129.97;4964558;28;20046;-62
2022/10/08 14:04:39;;;;;;;17.02;3.08;;;;;;;14.36;47.89;101125.16;4960317;28;20073;-64
2022/10/08 14:07:18;;;;;;;10.07;2.47;;;;;;;14.22;47.80;101130.31;4960305;28;20077;-63
2022/10/08 14:09:45;;;;;;;9.60;2.30;;;;;;;14.54;46.96;101132.00;4972680;28;20039;-64
2022/10/08 14:12:11;;;;;;;13.90;2.95;;;;;;;14.44;47.00;101133.25;4958011;28;20047;-62
2022/10/08 14:14:38;;;;;;;10.30;2.00;;;;;;;14.39;47.04;101132.91;4954700;28;20047;-62
2022/10/08 14:17:04;;;;;;;14.93;3.50;;;;;;;14.25;47.47;101132.66;4953694;29;20051;-62
2022/10/08 14:19:31;;;;;;;14.65;4.65;;;;;;;14.15;47.77;101131.16;4954309;29;20043;-61
2022/10/08 14:21:58;;;;;;;13.00;3.95;;;;;;;14.44;47.19;101133.25;4954305;29;20057;-61
2022/10/08 14:24:24;;;;;;;13.35;3.03;;;;;;;14.22;47.43;101142.94;4954003;29;20047;-62
2022/10/08 14:26:51;;;;;;;8.27;2.00;;;;;;;14.16;47.56;101149.03;4952794;29;20043;-61
2022/10/08 14:29:18;;;;;;;17.45;3.38;;;;;;;14.01;47.95;101147.06;4954416;29;20150;-61
2022/10/08 14:31:44;;;;;;;12.95;3.22;;;;;;;13.89;48.10;101153.81;4955801;29;20044;-61
2022/10/08 14:34:11;;;;;;;14.02;3.28;;;;;;;13.90;48.12;101151.97;4944995;28;20045;-61
2022/10/08 14:36:40;;;;;;;10.40;2.40;;;;;;;14.18;47.14;101164.03;4954755;29;20050;-63
2022/10/08 14:39:08;;;;;;;15.93;2.75;;;;;;;14.33;47.01;101177.66;4945678;29;20065;-62
2022/10/08 14:41:35;;;;;;;11.73;2.38;;;;;;;13.54;50.32;101193.59;4953934;29;20124;-62
2022/10/08 14:44:02;;;;;;;10.02;1.48;;;;;;;13.35;48.54;101189.38;4954794;29;20059;-61